Time;durP1;ratioP1;P1;durP2;ratioP2;P2;SDS_P1;SDS_P2;PMS_P1;PMS_P2;Temp;Humidity;BMP_temperature;BMP_pressure;BME280_temperature;BME280_humidity;BME280_pressure;Samples;Min_cycle;Max_cycle;Signal;HPM_P1;HPM_P2
2020/12/27 00:01:49;;;;;;;3.35;1.15;;;9.60;99.90;;;;;;5010716;28;20195;-29
2020/12/27 00:04:34;;;;;;;2.97;2.17;;;9.60;99.90;;;;;;5010895;28;20211;-29
2020/12/27 00:07:07;;;;;;;1.70;1.30;;;9.60;99.90;;;;;;5009201;28;20207;-28
2020/12/27 00:09:38;;;;;;;2.80;1.73;;;9.60;99.90;;;;;;5008687;28;20200;-28
2020/12/27 00:12:11;;;;;;;2.13;1.30;;;9.60;99.90;;;;;;5009626;28;20293;-28
2020/12/27 00:14:41;;;;;;;2.10;1.90;;;9.60;99.90;;;;;;4999082;28;20200;-29
2020/12/27 00:17:12;;;;;;;2.47;2.28;;;9.50;99.90;;;;;;4996920;28;20200;-28
2020/12/27 00:19:43;;;;;;;3.15;1.65;;;9.50;99.90;;;;;;5007717;28;20204;-29
2020/12/27 00:22:13;;;;;;;2.58;2.25;;;9.50;99.90;;;;;;5011507;28;20588;-28
2020/12/27 00:24:44;;;;;;;3.33;1.33;;;9.40;99.90;;;;;;5011075;28;20237;-29
2020/12/27 00:27:15;;;;;;;4.07;1.70;;;9.40;99.90;;;;;;5009160;28;20244;-29
2020/12/27 00:29:45;;;;;;;1.95;1.50;;;9.40;99.90;;;;;;5007456;28;20203;-28
2020/12/27 00:32:16;;;;;;;1.73;1.52;;;9.40;99.90;;;;;;5010710;28;20195;-29
2020/12/27 00:34:53;;;;;;;5.07;2.55;;;9.40;99.90;;;;;;5009782;28;20260;-29
2020/12/27 00:37:24;;;;;;;5.35;2.45;;;9.40;99.90;;;;;;5010411;28;20207;-29
2020/12/27 00:39:54;;;;;;;1.63;1.50;;;9.40;99.90;;;;;;5009678;28;20634;-29
2020/12/27 00:42:25;;;;;;;2.35;2.13;;;9.40;99.90;;;;;;5010754;28;20196;-29
2020/12/27 00:44:56;;;;;;;3.88;2.10;;;9.50;99.90;;;;;;5010712;28;20316;-29
2020/12/27 00:47:26;;;;;;;3.17;1.98;;;9.40;99.90;;;;;;5011012;28;20192;-29
2020/12/27 00:49:56;;;;;;;2.65;1.55;;;9.40;99.90;;;;;;5009036;28;20277;-28
2020/12/27 00:52:26;;;;;;;3.22;2.17;;;9.50;99.90;;;;;;5006055;28;20299;-28
2020/12/27 00:54:56;;;;;;;6.38;2.00;;;9.50;99.90;;;;;;5000580;28;20273;-29
2020/12/27 00:57:27;;;;;;;2.38;2.17;;;9.40;99.90;;;;;;5005553;28;20191;-28
2020/12/27 00:59:57;;;;;;;2.38;1.75;;;9.50;99.90;;;;;;5009970;28;20187;-29
2020/12/27 01:02:27;;;;;;;3.80;2.47;;;9.50;99.90;;;;;;5010835;28;20203;-29
2020/12/27 01:05:10;;;;;;;3.42;1.90;;;9.50;99.90;;;;;;4991161;28;20219;-27
2020/12/27 01:07:40;;;;;;;1.50;1.40;;;9.50;99.90;;;;;;4990963;28;20594;-28
2020/12/27 01:10:11;;;;;;;2.33;2.13;;;9.60;99.90;;;;;;5009972;28;20227;-27
2020/12/27 01:12:42;;;;;;;3.60;3.40;;;9.60;99.90;;;;;;5009838;28;20257;-27
2020/12/27 01:15:12;;;;;;;6.22;4.32;;;9.60;99.90;;;;;;5007396;28;20199;-28
2020/12/27 01:17:42;;;;;;;2.47;2.20;;;9.60;99.90;;;;;;5009696;28;20208;-28
2020/12/27 01:20:13;;;;;;;2.70;2.20;;;9.60;99.90;;;;;;5004456;28;20191;-28
2020/12/27 01:22:43;;;;;;;3.85;2.28;;;9.70;99.90;;;;;;5010042;28;20577;-28
2020/12/27 01:25:13;;;;;;;2.67;2.15;;;9.70;99.90;;;;;;5009295;28;20235;-28
2020/12/27 01:27:44;;;;;;;4.43;2.65;;;9.60;99.90;;;;;;5009657;28;20203;-28
2020/12/27 01:30:14;;;;;;;3.00;2.70;;;9.60;99.90;;;;;;5009384;28;20664;-28
2020/12/27 01:32:44;;;;;;;3.30;3.00;;;9.60;99.90;;;;;;5009687;28;20644;-28
2020/12/27 01:35:31;;;;;;;3.13;2.92;;;9.60;99.90;;;;;;5010197;28;20199;-28
2020/12/27 01:38:01;;;;;;;3.38;2.78;;;9.50;99.90;;;;;;5009132;28;20196;-28
2020/12/27 01:40:31;;;;;;;6.03;3.25;;;9.50;99.90;;;;;;5009154;28;20216;-28
2020/12/27 01:43:02;;;;;;;3.25;2.95;;;9.50;99.90;;;;;;5009478;28;20273;-28
2020/12/27 01:45:32;;;;;;;3.53;3.22;;;9.50;99.90;;;;;;5011199;28;20238;-28
2020/12/27 01:48:02;;;;;;;5.07;4.68;;;9.40;99.90;;;;;;5008983;28;20204;-28
2020/12/27 01:50:34;;;;;;;5.45;3.80;;;9.40;99.90;;;;;;5000198;28;20188;-28
2020/12/27 01:53:06;;;;;;;5.10;3.90;;;9.40;99.90;;;;;;5009441;28;20622;-28
2020/12/27 01:55:38;;;;;;;6.47;3.03;;;9.40;99.90;;;;;;5009858;28;20199;-29
2020/12/27 01:58:26;;;;;;;3.10;2.80;;;9.50;99.90;;;;;;5009487;28;20202;-29
2020/12/27 02:00:56;;;;;;;3.35;3.13;;;9.50;99.90;;;;;;5009437;28;20198;-26
2020/12/27 02:03:26;;;;;;;3.05;2.58;;;9.50;99.90;;;;;;5009968;28;20664;-29
2020/12/27 02:05:56;;;;;;;4.10;3.80;;;9.50;99.90;;;;;;4990388;28;20297;-27
2020/12/27 02:08:27;;;;;;;4.10;3.45;;;9.50;99.90;;;;;;5006270;28;20265;-27
2020/12/27 02:10:58;;;;;;;6.00;5.50;;;9.50;99.90;;;;;;5009756;28;20247;-27
2020/12/27 02:13:29;;;;;;;5.80;5.25;;;9.50;99.90;;;;;;5009726;28;20187;-27
2020/12/27 02:15:59;;;;;;;6.60;6.00;;;9.50;99.90;;;;;;5011401;28;20202;-28
2020/12/27 02:18:29;;;;;;;5.40;4.90;;;9.50;99.90;;;;;;5010717;28;20195;-29
2020/12/27 02:21:00;;;;;;;5.25;4.75;;;9.50;99.90;;;;;;5011140;28;20195;-29
2020/12/27 02:23:30;;;;;;;3.78;3.47;;;9.50;99.90;;;;;;5013750;28;20278;-29
2020/12/27 02:26:01;;;;;;;4.13;3.83;;;9.50;99.90;;;;;;5014183;28;20219;-29
2020/12/27 02:28:31;;;;;;;3.95;3.10;;;9.50;99.90;;;;;;5013857;28;20826;-29
2020/12/27 02:31:01;;;;;;;7.78;4.05;;;9.40;99.90;;;;;;5013211;28;20203;-29
2020/12/27 02:33:32;;;;;;;4.15;3.70;;;9.50;99.90;;;;;;5006566;28;20214;-28
2020/12/27 02:36:11;;;;;;;4.85;3.95;;;9.40;99.90;;;;;;5013529;28;20271;-29
2020/12/27 02:38:42;;;;;;;5.07;3.58;;;9.40;99.90;;;;;;5013331;28;20188;-29
2020/12/27 02:41:18;;;;;;;5.45;3.90;;;9.40;99.90;;;;;;5011435;28;20693;-29
2020/12/27 02:43:48;;;;;;;4.22;3.83;;;9.40;99.90;;;;;;4999325;28;20268;-29
2020/12/27 02:46:22;;;;;;;4.80;4.38;;;9.30;99.90;;;;;;5012577;28;20215;-29
2020/12/27 02:48:53;;;;;;;4.72;3.95;;;9.30;99.90;;;;;;5013198;28;20549;-29
2020/12/27 02:51:24;;;;;;;4.43;4.03;;;9.30;99.90;;;;;;5013163;28;20192;-29
2020/12/27 02:53:55;;;;;;;4.35;3.95;;;9.30;99.90;;;;;;4997122;28;20249;-29
2020/12/27 02:56:28;;;;;;;4.35;3.95;;;9.30;99.90;;;;;;5007959;28;20702;-29
2020/12/27 02:59:00;;;;;;;3.65;3.35;;;9.30;99.90;;;;;;5011943;28;20210;-29
2020/12/27 03:01:30;;;;;;;4.40;4.07;;;9.30;99.90;;;;;;5012560;28;20196;-29
2020/12/27 03:04:00;;;;;;;4.75;4.32;;;9.30;99.90;;;;;;5007459;28;20526;-29
2020/12/27 03:06:31;;;;;;;9.00;6.25;;;9.30;99.90;;;;;;5006586;28;20234;-29
2020/12/27 03:09:01;;;;;;;5.25;4.78;;;9.30;99.90;;;;;;5013051;28;20243;-29
2020/12/27 03:11:32;;;;;;;3.92;3.45;;;9.40;99.90;;;;;;5012614;28;20253;-29
2020/12/27 03:14:03;;;;;;;4.30;3.90;;;9.40;99.90;;;;;;5011488;28;20250;-29
2020/12/27 03:16:32;;;;;;;4.95;4.07;;;9.40;99.90;;;;;;5012442;28;20223;-29
2020/12/27 03:19:03;;;;;;;4.50;4.20;;;9.40;99.90;;;;;;5011810;28;20199;-29
2020/12/27 03:21:33;;;;;;;4.93;4.43;;;9.50;99.90;;;;;;5012831;28;20199;-29
2020/12/27 03:24:03;;;;;;;4.88;4.07;;;9.50;99.90;;;;;;5009494;28;20266;-29
2020/12/27 03:26:34;;;;;;;5.63;4.70;;;9.50;99.90;;;;;;5008693;28;20224;-29
2020/12/27 03:29:04;;;;;;;4.25;3.80;;;9.50;99.90;;;;;;5009441;28;20540;-29
2020/12/27 03:31:34;;;;;;;3.63;3.33;;;9.50;99.90;;;;;;5002939;28;20527;-29
2020/12/27 03:34:04;;;;;;;4.43;4.00;;;9.50;99.90;;;;;;5010918;28;20551;-29
2020/12/27 03:36:46;;;;;;;5.78;4.38;;;9.40;99.90;;;;;;5012292;28;20194;-29
2020/12/27 03:39:16;;;;;;;4.53;3.80;;;9.40;99.90;;;;;;5011038;28;20219;-29
2020/12/27 03:41:47;;;;;;;4.95;4.18;;;9.40;99.90;;;;;;5011386;28;20196;-29
2020/12/27 03:44:17;;;;;;;4.20;3.80;;;9.30;99.90;;;;;;5011342;28;20782;-29
2020/12/27 03:46:47;;;;;;;5.78;3.55;;;9.30;99.90;;;;;;5011202;28;20209;-29
2020/12/27 03:49:17;;;;;;;3.35;3.05;;;9.40;99.90;;;;;;5011768;28;20773;-29
2020/12/27 03:51:47;;;;;;;3.50;3.20;;;9.50;99.90;;;;;;5011651;28;20206;-29
2020/12/27 03:54:18;;;;;;;3.75;3.45;;;9.50;99.90;;;;;;5011525;28;20199;-28
2020/12/27 03:56:49;;;;;;;3.92;3.53;;;9.40;99.90;;;;;;5011533;28;20580;-28
2020/12/27 03:59:19;;;;;;;4.30;4.00;;;9.40;99.90;;;;;;5011353;28;20196;-28
2020/12/27 04:01:49;;;;;;;4.03;3.67;;;9.40;99.90;;;;;;5008420;28;20577;-28
2020/12/27 04:04:19;;;;;;;4.07;3.78;;;9.40;99.90;;;;;;5008381;28;20205;-28
2020/12/27 04:07:05;;;;;;;4.10;3.80;;;9.40;99.90;;;;;;5010560;28;20265;-28
2020/12/27 04:09:35;;;;;;;4.80;4.20;;;9.50;99.90;;;;;;5008307;28;20197;-28
2020/12/27 04:12:06;;;;;;;5.10;4.25;;;9.50;99.90;;;;;;5007979;28;20918;-28
2020/12/27 04:14:36;;;;;;;5.72;3.90;;;9.40;99.90;;;;;;5009773;28;20199;-28
2020/12/27 04:17:06;;;;;;;4.57;4.18;;;9.50;99.90;;;;;;5007662;28;20727;-29
2020/12/27 04:19:36;;;;;;;4.75;4.30;;;9.40;99.90;;;;;;5011395;28;20195;-29
2020/12/27 04:22:07;;;;;;;5.32;4.82;;;9.40;99.90;;;;;;5009908;28;20203;-28
2020/12/27 04:24:37;;;;;;;5.57;5.07;;;9.40;99.90;;;;;;4995195;28;20192;-28
2020/12/27 04:27:09;;;;;;;5.25;4.75;;;9.30;99.90;;;;;;5010550;28;20199;-28
2020/12/27 04:29:39;;;;;;;5.22;4.63;;;9.40;99.90;;;;;;5010822;28;20191;-29
2020/12/27 04:32:09;;;;;;;4.80;4.30;;;9.40;99.90;;;;;;5011259;28;20261;-29
2020/12/27 04:34:39;;;;;;;4.80;4.32;;;9.40;99.90;;;;;;5010770;28;20291;-30
2020/12/27 04:37:26;;;;;;;5.88;5.28;;;9.40;99.90;;;;;;5011153;28;20255;-29
2020/12/27 04:39:56;;;;;;;5.45;4.95;;;9.30;99.90;;;;;;5009702;28;20220;-29
2020/12/27 04:42:27;;;;;;;7.05;4.50;;;9.30;99.90;;;;;;5010216;28;20199;-29
2020/12/27 04:44:58;;;;;;;4.93;3.70;;;9.40;99.90;;;;;;5005315;28;20212;-29
2020/12/27 04:47:28;;;;;;;4.25;3.70;;;9.40;99.90;;;;;;5002832;28;20191;-29
2020/12/27 04:49:58;;;;;;;3.60;3.30;;;9.40;99.90;;;;;;5010443;28;20607;-29
2020/12/27 04:52:33;;;;;;;3.80;3.47;;;9.40;99.90;;;;;;5010320;28;20192;-29
2020/12/27 04:55:03;;;;;;;4.93;3.10;;;9.50;99.90;;;;;;5009053;28;20195;-29
2020/12/27 04:57:39;;;;;;;3.78;3.20;;;9.50;99.90;;;;;;5010428;28;20206;-29
2020/12/27 05:00:09;;;;;;;3.40;3.10;;;9.50;99.90;;;;;;5010353;28;20265;-29
2020/12/27 05:02:39;;;;;;;5.18;3.10;;;9.60;99.90;;;;;;5010698;28;20199;-29
2020/12/27 05:05:13;;;;;;;4.07;3.08;;;9.60;99.90;;;;;;5010639;28;20722;-28
2020/12/27 05:07:44;;;;;;;4.53;4.05;;;9.60;99.90;;;;;;5009871;28;20202;-28
2020/12/27 05:10:15;;;;;;;2.90;2.70;;;9.60;99.90;;;;;;5002894;28;20200;-28
2020/12/27 05:12:46;;;;;;;2.97;2.65;;;9.60;99.90;;;;;;5006423;28;20235;-28
2020/12/27 05:15:16;;;;;;;2.78;2.58;;;9.70;99.90;;;;;;5009565;28;20205;-28
2020/12/27 05:17:48;;;;;;;2.90;2.70;;;9.70;99.90;;;;;;5008552;28;20203;-29
2020/12/27 05:20:19;;;;;;;3.90;3.22;;;9.70;99.90;;;;;;5008223;28;20247;-29
2020/12/27 05:22:49;;;;;;;3.40;3.10;;;9.60;99.90;;;;;;5009801;28;20203;-28
2020/12/27 05:25:21;;;;;;;3.72;3.33;;;9.60;99.90;;;;;;5007094;28;20218;-28
2020/12/27 05:27:56;;;;;;;4.00;3.70;;;9.60;99.90;;;;;;5004518;28;20191;-28
2020/12/27 05:30:29;;;;;;;3.83;3.53;;;9.50;99.90;;;;;;5007459;28;20214;-29
2020/12/27 05:32:59;;;;;;;4.00;3.70;;;9.50;99.90;;;;;;5007629;28;20570;-28
2020/12/27 05:35:29;;;;;;;4.13;3.72;;;9.60;99.90;;;;;;4999978;28;20201;-28
2020/12/27 05:38:04;;;;;;;4.28;3.97;;;9.60;99.90;;;;;;4992815;28;20187;-28
2020/12/27 05:40:37;;;;;;;4.95;4.30;;;9.60;99.90;;;;;;5010874;28;20237;-28
2020/12/27 05:43:17;;;;;;;5.47;4.40;;;9.60;99.90;;;;;;5009917;28;20198;-28
2020/12/27 05:45:47;;;;;;;5.65;4.00;;;9.60;99.90;;;;;;5008494;28;20281;-28
2020/12/27 05:48:17;;;;;;;4.45;4.05;;;9.60;99.90;;;;;;5009816;28;20192;-28
2020/12/27 05:50:50;;;;;;;5.15;4.50;;;9.50;99.90;;;;;;5009458;28;20208;-28
2020/12/27 05:53:22;;;;;;;4.88;4.45;;;9.50;99.90;;;;;;5009741;28;20258;-28
2020/12/27 05:55:53;;;;;;;4.97;4.45;;;9.50;99.90;;;;;;5006474;28;20188;-29
2020/12/27 05:58:25;;;;;;;6.80;5.18;;;9.60;99.90;;;;;;5009193;28;20195;-29
2020/12/27 06:00:57;;;;;;;5.28;4.50;;;9.60;99.90;;;;;;5008878;28;20250;-29
2020/12/27 06:03:29;;;;;;;4.68;4.13;;;9.50;99.90;;;;;;5010031;28;20254;-29
2020/12/27 06:06:09;;;;;;;4.45;4.05;;;9.50;99.90;;;;;;4997213;28;20688;-29
2020/12/27 06:09:04;;;;;;;4.35;3.85;;;9.60;99.90;;;;;;4994620;28;20189;-29
2020/12/27 06:11:54;;;;;;;6.93;4.63;;;9.60;99.90;;;;;;5007557;28;20231;-29
2020/12/27 06:14:38;;;;;;;4.75;4.32;;;9.60;99.90;;;;;;5000459;28;20192;-29
2020/12/27 06:17:16;;;;;;;4.35;3.95;;;9.60;99.90;;;;;;4994600;28;20197;-29
2020/12/27 06:20:01;;;;;;;5.95;5.35;;;9.50;99.90;;;;;;5006240;28;20191;-29
2020/12/27 06:22:32;;;;;;;4.85;4.35;;;9.50;99.90;;;;;;5005907;28;20199;-29
2020/12/27 06:25:03;;;;;;;5.10;3.85;;;9.50;99.90;;;;;;5009004;28;20201;-28
2020/12/27 06:27:35;;;;;;;4.55;3.58;;;9.60;99.90;;;;;;5009424;28;20204;-28
2020/12/27 06:30:10;;;;;;;4.80;4.07;;;9.60;99.90;;;;;;4995792;28;20292;-28
2020/12/27 06:32:48;;;;;;;5.38;3.92;;;9.60;99.90;;;;;;5008608;28;20260;-28
2020/12/27 06:35:18;;;;;;;4.40;3.63;;;9.60;99.90;;;;;;4995495;28;20200;-29
2020/12/27 06:37:48;;;;;;;4.00;3.70;;;9.50;99.90;;;;;;4993889;28;20204;-29
2020/12/27 06:40:21;;;;;;;5.00;4.00;;;9.50;99.90;;;;;;5005066;28;20635;-29
2020/12/27 06:42:51;;;;;;;4.20;3.80;;;9.40;99.90;;;;;;5008874;28;20602;-29
2020/12/27 06:45:30;;;;;;;3.72;2.90;;;9.30;99.90;;;;;;5007406;28;20238;-29
2020/12/27 06:48:00;;;;;;;4.30;3.90;;;9.30;99.90;;;;;;5009127;28;20211;-29
2020/12/27 06:50:30;;;;;;;4.63;4.10;;;9.30;99.90;;;;;;5009668;28;20187;-29
2020/12/27 06:53:00;;;;;;;4.53;4.13;;;9.30;99.90;;;;;;5002466;28;20608;-29
2020/12/27 06:55:38;;;;;;;4.60;4.20;;;9.30;99.90;;;;;;5006859;28;20697;-29
2020/12/27 06:58:25;;;;;;;4.28;3.88;;;9.30;99.90;;;;;;5008564;28;20203;-29
2020/12/27 07:01:12;;;;;;;11.00;4.22;;;9.20;99.90;;;;;;5008432;28;20287;-29
2020/12/27 07:03:42;;;;;;;4.80;4.40;;;9.20;99.90;;;;;;5009026;28;20207;-29
2020/12/27 07:06:25;;;;;;;4.10;3.35;;;9.20;99.90;;;;;;4989929;28;20221;-29
2020/12/27 07:09:04;;;;;;;3.67;3.38;;;9.20;99.90;;;;;;5010231;28;20197;-29
2020/12/27 07:11:35;;;;;;;7.93;4.10;;;9.10;99.90;;;;;;5012532;28;20235;-28
2020/12/27 07:14:05;;;;;;;4.05;3.75;;;9.10;99.90;;;;;;5008834;28;20186;-28
2020/12/27 07:16:49;;;;;;;4.55;4.15;;;9.00;99.90;;;;;;5003086;28;20207;-28
2020/12/27 07:19:19;;;;;;;4.50;4.10;;;9.00;99.90;;;;;;5002582;28;21969;-27
2020/12/27 07:21:49;;;;;;;5.25;4.55;;;9.00;99.90;;;;;;5011376;28;20198;-28
2020/12/27 07:24:27;;;;;;;4.50;4.05;;;9.00;99.90;;;;;;5012860;28;20253;-29
2020/12/27 07:26:57;;;;;;;4.95;4.45;;;9.00;99.90;;;;;;4999434;28;20588;-29
2020/12/27 07:29:27;;;;;;;5.10;4.70;;;8.90;99.90;;;;;;5012049;28;20195;-29
2020/12/27 07:32:01;;;;;;;5.45;4.95;;;8.90;99.90;;;;;;5012710;28;20640;-29
2020/12/27 07:34:32;;;;;;;8.30;6.20;;;8.90;99.90;;;;;;5007391;28;20243;-28
2020/12/27 07:37:04;;;;;;;6.05;5.40;;;8.80;99.90;;;;;;4996559;28;20726;-28
2020/12/27 07:39:54;;;;;;;6.68;5.97;;;8.70;99.90;;;;;;4998089;28;20228;-28
2020/12/27 07:42:25;;;;;;;5.85;5.25;;;8.70;99.90;;;;;;5010198;28;20187;-28
2020/12/27 07:44:56;;;;;;;5.88;5.38;;;8.70;99.90;;;;;;5010900;28;20197;-29
2020/12/27 07:47:27;;;;;;;6.15;5.45;;;8.70;99.90;;;;;;4996506;28;20196;-29
2020/12/27 07:50:09;;;;;;;6.03;5.43;;;8.60;99.90;;;;;;5000841;28;20191;-27
2020/12/27 07:52:52;;;;;;;8.02;5.00;;;8.60;99.90;;;;;;5011734;28;20192;-28
2020/12/27 07:55:30;;;;;;;5.40;4.90;;;8.60;99.90;;;;;;5011163;28;20233;-28
2020/12/27 07:58:03;;;;;;;5.20;4.70;;;8.60;99.90;;;;;;5010678;28;20199;-28
2020/12/27 08:00:33;;;;;;;6.35;5.85;;;8.60;99.90;;;;;;5011061;28;20199;-28
2020/12/27 08:03:07;;;;;;;5.72;5.07;;;8.60;99.90;;;;;;5011770;28;20257;-28
2020/12/27 08:05:37;;;;;;;6.97;6.30;;;8.60;99.90;;;;;;5011070;28;20711;-28
2020/12/27 08:08:09;;;;;;;7.10;6.40;;;8.60;99.90;;;;;;5011635;28;20250;-28
2020/12/27 08:10:40;;;;;;;8.65;7.85;;;8.60;99.90;;;;;;5011601;28;20203;-28
2020/12/27 08:13:11;;;;;;;10.00;9.00;;;8.60;99.90;;;;;;5011570;28;20226;-29
2020/12/27 08:15:41;;;;;;;10.82;9.55;;;8.60;99.90;;;;;;5011631;28;20208;-29
2020/12/27 08:18:13;;;;;;;11.18;9.15;;;8.60;99.90;;;;;;5005323;28;20192;-28
2020/12/27 08:20:47;;;;;;;9.30;8.50;;;8.60;99.90;;;;;;5011429;28;20191;-28
2020/12/27 08:23:19;;;;;;;10.20;9.23;;;8.60;99.90;;;;;;5004402;28;20192;-29
2020/12/27 08:25:58;;;;;;;8.70;8.00;;;8.60;99.90;;;;;;5011428;28;20229;-28
2020/12/27 08:28:28;;;;;;;10.05;9.13;;;8.60;99.90;;;;;;4998170;28;20691;-28
2020/12/27 08:30:58;;;;;;;9.70;8.77;;;8.60;99.90;;;;;;5010850;28;20203;-28
2020/12/27 08:33:29;;;;;;;9.93;8.93;;;8.60;99.90;;;;;;5010982;28;20253;-28
2020/12/27 08:35:59;;;;;;;9.48;8.55;;;8.50;99.90;;;;;;5010882;28;22231;-29
2020/12/27 08:38:48;;;;;;;10.15;9.15;;;8.60;99.90;;;;;;5009383;28;20203;-28
2020/12/27 08:41:23;;;;;;;10.52;9.45;;;8.50;99.90;;;;;;4996548;28;20191;-29
2020/12/27 08:44:13;;;;;;;10.48;9.38;;;8.60;99.90;;;;;;5011002;28;20195;-29
2020/12/27 08:46:45;;;;;;;10.27;9.27;;;8.60;99.90;;;;;;5011439;28;20223;-28
2020/12/27 08:49:30;;;;;;;10.38;9.20;;;8.60;99.90;;;;;;5010995;28;20598;-28
2020/12/27 08:52:08;;;;;;;10.68;9.68;;;8.60;99.90;;;;;;5006629;28;20195;-28
2020/12/27 08:54:38;;;;;;;10.27;9.13;;;8.50;99.90;;;;;;5010262;28;20266;-28
2020/12/27 08:57:11;;;;;;;10.82;9.82;;;8.50;99.90;;;;;;5010253;28;20196;-28
2020/12/27 08:59:41;;;;;;;11.60;10.50;;;8.50;99.90;;;;;;5010370;28;20191;-28
2020/12/27 09:02:12;;;;;;;10.68;9.48;;;8.50;99.90;;;;;;5010642;28;20768;-29
2020/12/27 09:04:43;;;;;;;10.20;9.20;;;8.50;99.90;;;;;;5009090;28;20200;-28
2020/12/27 09:07:13;;;;;;;11.13;9.98;;;8.50;99.90;;;;;;5000338;28;20215;-29
2020/12/27 09:09:43;;;;;;;10.63;9.60;;;8.40;99.90;;;;;;5010460;28;20234;-30
2020/12/27 09:12:13;;;;;;;11.15;10.00;;;8.30;99.90;;;;;;5010379;28;20250;-28
2020/12/27 09:14:43;;;;;;;10.98;9.45;;;8.30;99.90;;;;;;5010744;28;20622;-28
2020/12/27 09:17:17;;;;;;;9.98;8.98;;;8.30;99.90;;;;;;5002930;28;20747;-28
2020/12/27 09:19:48;;;;;;;11.57;9.02;;;8.30;99.90;;;;;;5002371;28;20198;-28
2020/12/27 09:22:19;;;;;;;8.13;7.40;;;8.40;99.90;;;;;;5010699;28;20388;-28
2020/12/27 09:25:06;;;;;;;8.80;6.72;;;8.50;99.90;;;;;;5010077;28;20216;-28
2020/12/27 09:27:36;;;;;;;8.30;7.50;;;8.40;99.90;;;;;;5006761;28;20667;-28
2020/12/27 09:30:07;;;;;;;9.00;8.10;;;8.40;99.90;;;;;;5006162;28;20635;-29
2020/12/27 09:32:37;;;;;;;10.95;9.73;;;8.30;99.90;;;;;;5010448;28;20318;-30
2020/12/27 09:35:08;;;;;;;10.30;9.30;;;8.20;99.90;;;;;;5010054;28;20242;-29
2020/12/27 09:37:38;;;;;;;13.38;9.63;;;8.10;99.90;;;;;;5009872;28;20240;-29
2020/12/27 09:40:08;;;;;;;11.65;10.13;;;8.20;99.90;;;;;;5009561;28;20226;-29
2020/12/27 09:42:38;;;;;;;9.73;8.80;;;8.10;99.90;;;;;;5010119;28;20643;-29
2020/12/27 09:45:22;;;;;;;9.23;8.02;;;8.00;99.90;;;;;;5009106;28;20241;-29
2020/12/27 09:47:57;;;;;;;9.98;8.73;;;8.00;99.90;;;;;;4998147;28;20203;-30
2020/12/27 09:50:33;;;;;;;7.75;6.95;;;8.10;99.90;;;;;;5007607;28;20265;-29
2020/12/27 09:53:04;;;;;;;7.40;6.68;;;8.10;99.90;;;;;;5008693;28;20194;-29
2020/12/27 09:55:36;;;;;;;6.78;6.15;;;8.10;99.90;;;;;;5001896;28;20270;-29
2020/12/27 09:58:06;;;;;;;6.53;5.93;;;8.00;99.90;;;;;;5008669;28;20187;-29
2020/12/27 10:00:36;;;;;;;6.43;5.10;;;8.00;99.90;;;;;;5009428;28;20270;-30
2020/12/27 10:03:06;;;;;;;5.40;4.15;;;8.00;99.90;;;;;;5009583;28;20211;-30
2020/12/27 10:05:37;;;;;;;4.68;3.90;;;8.00;99.90;;;;;;5002774;28;20253;-30
2020/12/27 10:08:07;;;;;;;3.45;3.00;;;7.90;99.90;;;;;;5005863;28;20245;-30
2020/12/27 10:10:55;;;;;;;3.50;3.20;;;8.00;99.90;;;;;;5009771;28;21491;-30
2020/12/27 10:13:25;;;;;;;3.80;3.50;;;7.90;99.90;;;;;;5009249;28;20257;-29
2020/12/27 10:15:55;;;;;;;3.72;3.42;;;7.90;99.90;;;;;;4989659;28;20233;-28
2020/12/27 10:18:25;;;;;;;2.92;2.70;;;7.80;99.90;;;;;;5000918;28;20200;-28
2020/12/27 10:20:56;;;;;;;3.22;2.92;;;7.70;99.90;;;;;;4992884;28;20203;-28
2020/12/27 10:23:26;;;;;;;3.67;3.15;;;7.80;99.90;;;;;;5001360;28;20203;-29
2020/12/27 10:25:56;;;;;;;3.05;2.75;;;7.80;99.90;;;;;;5009456;28;20230;-29
2020/12/27 10:28:26;;;;;;;2.60;2.40;;;7.80;99.90;;;;;;5008654;28;20210;-29
2020/12/27 10:30:56;;;;;;;3.90;3.08;;;7.80;99.90;;;;;;5007442;28;20595;-29
2020/12/27 10:33:26;;;;;;;2.95;2.45;;;7.80;99.90;;;;;;5009133;28;20211;-29
2020/12/27 10:36:00;;;;;;;3.78;2.53;;;7.80;99.90;;;;;;5009403;28;20211;-28
2020/12/27 10:38:30;;;;;;;2.78;2.58;;;7.90;99.90;;;;;;5008053;28;20297;-29
2020/12/27 10:41:16;;;;;;;2.80;2.42;;;7.80;99.90;;;;;;4989900;28;20462;-29
2020/12/27 10:43:50;;;;;;;2.78;2.58;;;7.70;99.90;;;;;;5003427;28;20269;-28
2020/12/27 10:46:20;;;;;;;3.20;2.90;;;7.60;99.90;;;;;;5012769;28;20219;-28
2020/12/27 10:48:50;;;;;;;3.22;2.80;;;7.60;99.90;;;;;;5013260;28;20191;-28
2020/12/27 10:51:22;;;;;;;4.25;2.60;;;7.50;99.90;;;;;;5013592;28;20274;-28
2020/12/27 10:53:52;;;;;;;5.25;3.42;;;7.60;99.90;;;;;;5012751;28;20192;-28
2020/12/27 10:56:22;;;;;;;3.92;2.78;;;7.60;99.90;;;;;;5012330;28;20206;-28
2020/12/27 10:58:52;;;;;;;3.25;3.05;;;7.60;99.90;;;;;;5013089;28;20285;-28
2020/12/27 11:01:22;;;;;;;4.88;3.63;;;7.60;99.90;;;;;;5006992;28;20202;-28
2020/12/27 11:03:52;;;;;;;3.35;3.05;;;7.60;99.90;;;;;;5013293;28;20196;-28
2020/12/27 11:06:30;;;;;;;2.95;2.60;;;7.60;99.90;;;;;;5012593;28;20231;-28
2020/12/27 11:09:01;;;;;;;2.72;2.50;;;7.70;99.90;;;;;;5012873;28;20184;-28
2020/12/27 11:11:35;;;;;;;3.00;2.47;;;7.60;99.90;;;;;;5012595;28;20237;-29
2020/12/27 11:14:07;;;;;;;3.17;2.22;;;7.50;99.90;;;;;;5012656;28;20303;-29
2020/12/27 11:16:37;;;;;;;3.22;2.90;;;7.50;99.90;;;;;;5012420;28;20269;-29
2020/12/27 11:19:07;;;;;;;3.10;2.70;;;7.50;99.90;;;;;;5012081;28;20202;-28
2020/12/27 11:21:45;;;;;;;5.97;2.70;;;7.60;99.90;;;;;;5012723;28;20616;-28
2020/12/27 11:24:16;;;;;;;2.50;2.30;;;7.60;99.90;;;;;;4994141;28;20196;-29
2020/12/27 11:26:46;;;;;;;1.80;1.70;;;7.60;99.90;;;;;;5009615;28;20289;-28
2020/12/27 11:29:16;;;;;;;1.77;1.67;;;7.60;99.90;;;;;;5011366;28;20223;-29
2020/12/27 11:31:46;;;;;;;2.17;2.00;;;7.60;99.90;;;;;;5012377;28;20200;-29
2020/12/27 11:34:16;;;;;;;2.33;2.13;;;7.60;99.90;;;;;;5012185;28;20249;-28
2020/12/27 11:36:49;;;;;;;2.35;2.10;;;7.60;99.90;;;;;;5011814;28;20226;-30
2020/12/27 11:39:19;;;;;;;2.95;2.08;;;7.70;99.90;;;;;;5012261;28;20219;-28
2020/12/27 11:41:53;;;;;;;2.05;1.90;;;7.60;99.90;;;;;;5012157;28;20651;-29
2020/12/27 11:44:23;;;;;;;2.75;2.20;;;7.70;99.90;;;;;;5007143;28;20777;-29
2020/12/27 11:46:53;;;;;;;2.75;1.90;;;7.70;99.90;;;;;;5007929;28;20226;-29
2020/12/27 11:49:23;;;;;;;2.05;1.85;;;7.70;99.90;;;;;;5011796;28;20625;-29
2020/12/27 11:51:54;;;;;;;2.38;1.60;;;7.70;99.90;;;;;;5012462;28;20230;-28
2020/12/27 11:54:24;;;;;;;2.30;2.00;;;7.70;99.90;;;;;;5003945;28;20614;-28
2020/12/27 11:56:56;;;;;;;2.58;2.38;;;7.70;99.90;;;;;;5002761;28;20211;-29
2020/12/27 11:59:26;;;;;;;2.55;2.35;;;7.70;99.90;;;;;;5011469;28;20196;-28
2020/12/27 12:01:56;;;;;;;2.45;1.52;;;7.70;99.90;;;;;;5012027;28;20211;-29
2020/12/27 12:04:26;;;;;;;2.15;2.00;;;7.70;99.90;;;;;;5011768;28;20195;-29
2020/12/27 12:06:57;;;;;;;1.70;1.60;;;7.70;99.90;;;;;;5012495;28;20248;-29
2020/12/27 12:09:27;;;;;;;1.70;1.60;;;7.80;99.90;;;;;;5010897;28;20194;-28
2020/12/27 12:12:11;;;;;;;1.40;1.30;;;7.70;99.90;;;;;;4991845;28;20236;-28
2020/12/27 12:14:41;;;;;;;1.02;0.90;;;7.50;99.90;;;;;;4999442;28;20346;-28
2020/12/27 12:17:11;;;;;;;1.63;1.52;;;7.60;99.90;;;;;;5011786;28;20202;-28
2020/12/27 12:19:41;;;;;;;1.83;1.73;;;7.60;99.90;;;;;;5011307;28;20214;-28
2020/12/27 12:22:17;;;;;;;3.08;1.60;;;7.60;99.90;;;;;;5011717;28;20195;-28
2020/12/27 12:24:47;;;;;;;1.45;1.35;;;7.70;99.90;;;;;;4999924;28;20203;-28
2020/12/27 12:27:17;;;;;;;1.58;1.48;;;7.70;99.90;;;;;;5007050;28;20314;-28
2020/12/27 12:29:47;;;;;;;1.90;1.35;;;7.70;99.90;;;;;;5010693;28;20265;-29
2020/12/27 12:32:17;;;;;;;1.38;1.27;;;7.70;99.90;;;;;;5011109;28;20269;-28
2020/12/27 12:34:47;;;;;;;1.27;1.17;;;7.60;99.90;;;;;;5011777;28;20211;-29
2020/12/27 12:37:18;;;;;;;1.33;1.23;;;7.60;99.90;;;;;;5011432;28;20273;-29
2020/12/27 12:39:48;;;;;;;1.48;1.23;;;7.60;99.90;;;;;;5009929;28;20559;-29
2020/12/27 12:42:36;;;;;;;1.50;1.40;;;7.70;99.90;;;;;;5011350;28;20844;-29
2020/12/27 12:45:07;;;;;;;1.58;1.30;;;7.70;99.90;;;;;;5010777;28;20194;-29
2020/12/27 12:47:37;;;;;;;1.70;1.60;;;7.60;99.90;;;;;;5010939;28;20216;-29
2020/12/27 12:50:08;;;;;;;2.90;1.58;;;7.60;99.90;;;;;;5010184;28;20725;-29
2020/12/27 12:52:39;;;;;;;2.15;1.60;;;7.70;99.90;;;;;;5011508;28;20691;-29
2020/12/27 12:55:10;;;;;;;1.63;1.52;;;7.60;99.90;;;;;;5011169;28;20604;-29
2020/12/27 12:57:40;;;;;;;3.05;1.48;;;7.60;99.90;;;;;;5010440;28;20273;-28
2020/12/27 13:00:10;;;;;;;1.70;1.60;;;7.50;99.90;;;;;;5010220;28;20557;-29
2020/12/27 13:02:40;;;;;;;1.65;1.50;;;7.60;99.90;;;;;;5011151;28;20594;-29
2020/12/27 13:05:10;;;;;;;1.50;1.40;;;7.50;99.90;;;;;;5005874;28;20203;-30
2020/12/27 13:07:42;;;;;;;3.22;1.98;;;7.60;99.90;;;;;;5009045;28;20527;-29
2020/12/27 13:10:13;;;;;;;2.00;1.77;;;7.60;99.90;;;;;;5010050;28;20678;-36
2020/12/27 13:12:58;;;;;;;3.30;1.60;;;7.60;99.90;;;;;;5010237;28;20383;-29
2020/12/27 13:15:29;;;;;;;2.08;1.92;;;7.60;99.90;;;;;;5010390;28;20736;-29
2020/12/27 13:17:59;;;;;;;4.05;1.88;;;7.50;99.90;;;;;;5010134;28;20195;-29
2020/12/27 13:20:29;;;;;;;1.60;1.50;;;7.40;99.90;;;;;;5010459;28;20255;-29
2020/12/27 13:23:00;;;;;;;2.15;1.67;;;7.40;99.90;;;;;;5010504;28;20341;-29